Flight Track Log - Related Links

Times and Time Zones

All times are in EDT time to prevent confusion due to time zone crossing. See the SWA2852 flight status page for this flight to view local times or setup timezone preferences in your user account.

Time Position Orientation Groundspeed Altitude Reporting Facility
EDT Latitude Longitude Course Direction KTS MPH feet Rate Location/Type
Thu 12:37:42 AM 35.4081 -97.6250 330° Northwest 139 160 2,300  Level Fort Worth Center
Thu 12:38:49 AM 35.4622 -97.6633 330° Northwest 261 300 4,500 2,835 Climbing Fort Worth Center
Thu 12:39:49 AM 35.5289 -97.7069 332° Northwest 284 327 8,300 3,669 Climbing Fort Worth Center
Thu 12:40:50 AM 35.5997 -97.7428 338° Northwest 277 319 11,900 2,866 Climbing Fort Worth Center
Thu 12:42:03 AM 35.6536 -97.8222 310° West 276 318 14,700 2,211 Climbing Fort Worth Center
Thu 12:43:03 AM 35.6450 -97.9244 264° West 258 297 16,800 2,550 Climbing Fort Worth Center
Thu 12:44:03 AM 35.6342 -98.0317 263° West 289 333 19,800 2,450 Climbing Fort Worth Center
Thu 12:45:03 AM 35.6208 -98.1514 262° West 330 380 21,700 2,100 Climbing Fort Worth Center
Thu 12:46:03 AM 35.6097 -98.2817 264° West 371 427 24,000 2,700 Climbing Fort Worth Center
Thu 12:47:03 AM 35.5983 -98.4142 264° West 389 448 27,100 2,750 Climbing Fort Worth Center
Thu 12:48:03 AM 35.5847 -98.5367 262° West 384 442 29,500 1,700 Climbing Fort Worth Center
Thu 12:49:03 AM 35.5731 -98.6614 263° West 379 436 30,500 1,050 Climbing Fort Worth Center
Thu 12:50:03 AM 35.5592 -98.7864 262° West 379 436 31,600 1,550 Climbing Fort Worth Center
Thu 12:51:03 AM 35.5494 -98.9061 264° West 374 430 33,600 3,200 Climbing Fort Worth Center
Thu 12:52:03 AM 35.5333 -99.0383 262° West 368 423 38,000 1,400 Climbing Fort Worth Center
Thu 12:53:03 AM 35.5211 -99.1606 263° West 368 423 36,400 -200 Descending Fort Worth Center
Thu 12:54:03 AM 35.5069 -99.2853 262° West 368 423 37,600 800 Climbing Fort Worth Center
Thu 12:55:03 AM 35.4986 -99.4100 265° West 368 423 38,000 114 Climbing Fort Worth Center
Thu 12:57:33 AM 35.4653 -99.7119 262° West 375 432 38,000  Level Albuquerque Center
Thu 12:58:34 AM 35.4533 -99.8364 263° West 369 425 38,000  Level Albuquerque Center
Thu 12:59:35 AM 35.4394 -99.9586 262° West 363 418 38,000  Level Albuquerque Center
Thu 01:00:35 AM 35.4258 -100.0792 262° West 358 412 38,000  Level Albuquerque Center
Thu 01:01:36 AM 35.4128 -100.1997 262° West 356 410 38,000  Level Albuquerque Center
Thu 01:02:37 AM 35.3994 -100.3186 262° West 353 406 38,000  Level Albuquerque Center
Thu 01:03:38 AM 35.3914 -100.4392 265° West 352 405 38,000  Level Albuquerque Center
Thu 01:04:38 AM 35.3881 -100.5606 268° West 353 406 38,000  Level Albuquerque Center
Thu 01:05:39 AM 35.3839 -100.6978 268° West 359 413 38,000  Level Albuquerque Center
Thu 01:06:40 AM 35.3797 -100.8208 268° West 361 415 38,000  Level Albuquerque Center
Thu 01:07:41 AM 35.3742 -100.9458 267° West 366 421 38,000  Level Albuquerque Center
Thu 01:08:42 AM 35.3694 -101.0697 267° West 367 422 38,000  Level Albuquerque Center
Thu 01:09:42 AM 35.3644 -101.1947 267° West 368 423 38,000  Level Albuquerque Center
Thu 01:10:43 AM 35.3592 -101.3322 267° West 364 419 38,000  Level Albuquerque Center
Thu 01:11:44 AM 35.3586 -101.4569 270° West 364 419 38,000  Level Albuquerque Center
Thu 01:12:44 AM 35.3547 -101.5803 268° West 362 417 38,000  Level Albuquerque Center
Thu 01:13:45 AM 35.3478 -101.7053 266° West 356 410 38,000  Level Albuquerque Center
Thu 01:14:46 AM 35.3431 -101.8275 267° West 356 410 38,000  Level Albuquerque Center
Thu 01:15:47 AM 35.3347 -101.9469 265° West 351 404 38,000  Level Albuquerque Center
Thu 01:16:47 AM 35.3261 -102.0589 265° West 356 410 38,000  Level Albuquerque Center
Thu 01:17:48 AM 35.3208 -102.1792 267° West 356 410 38,000  Level Albuquerque Center
Thu 01:18:49 AM 35.3153 -102.2983 267° West 353 406 38,000  Level Albuquerque Center
Thu 01:19:50 AM 35.3089 -102.4197 266° West 358 412 38,000  Level Albuquerque Center
Thu 01:20:50 AM 35.3031 -102.5422 267° West 361 415 38,000  Level Albuquerque Center
Thu 01:21:51 AM 35.2956 -102.6822 266° West 362 417 38,000  Level Albuquerque Center
Thu 01:22:52 AM 35.2900 -102.7883 266° West 364 419 38,000  Level Albuquerque Center
Thu 01:23:53 AM 35.2833 -102.9125 266° West 366 421 38,000  Level Albuquerque Center
Thu 01:24:53 AM 35.2764 -103.0572 267° West 365 420 38,000  Level Albuquerque Center
Thu 01:25:54 AM 35.2697 -103.1825 266° West 366 421 38,000  Level Albuquerque Center
Thu 01:26:55 AM 35.2622 -103.3081 266° West 366 421 38,000  Level Albuquerque Center
Thu 01:27:55 AM 35.2556 -103.4328 266° West 366 421 38,000  Level Albuquerque Center
Thu 01:28:56 AM 35.2478 -103.5583 266° West 367 422 38,000  Level Albuquerque Center
Thu 01:29:57 AM 35.2403 -103.6853 266° West 370 426 38,000  Level Albuquerque Center
Thu 01:30:57 AM 35.2325 -103.8122 266° West 371 427 38,000  Level Albuquerque Center
Thu 01:31:58 AM 35.2247 -103.9325 266° West 371 427 38,000  Level Albuquerque Center
Thu 01:32:59 AM 35.2183 -104.0581 266° West 370 426 38,000  Level Albuquerque Center
Thu 01:33:59 AM 35.2106 -104.1831 266° West 370 426 38,000  Level Albuquerque Center
Thu 01:35:00 AM 35.2006 -104.3083 264° West 371 427 38,000  Level Albuquerque Center
Thu 01:36:01 AM 35.1933 -104.4317 266° West 367 422 38,000  Level Albuquerque Center
Thu 01:37:01 AM 35.1861 -104.5556 266° West 365 420 38,000  Level Albuquerque Center
Thu 01:38:02 AM 35.1750 -104.6808 264° West 364 419 38,000  Level Albuquerque Center
Thu 01:39:03 AM 35.1664 -104.8022 265° West 358 412 38,000  Level Albuquerque Center
Thu 01:40:03 AM 35.1583 -104.9231 265° West 356 410 38,000  Level Albuquerque Center
Thu 01:41:04 AM 35.1503 -105.0447 265° West 357 411 38,000  Level Albuquerque Center
Thu 01:42:05 AM 35.1411 -105.1672 265° West 358 412 38,000  Level Albuquerque Center
Thu 01:43:05 AM 35.1319 -105.2911 265° West 363 418 38,000  Level Albuquerque Center
Thu 01:44:06 AM 35.1225 -105.4133 265° West 360 414 38,000  Level Albuquerque Center
Thu 01:45:07 AM 35.1139 -105.5311 265° West 350 403 38,000  Level Albuquerque Center
Thu 01:46:07 AM 35.1056 -105.6486 265° West 346 398 38,000  Level Albuquerque Center
Thu 01:47:08 AM 35.0967 -105.7681 265° West 350 403 38,000  Level Albuquerque Center
Thu 01:48:08 AM 35.0864 -105.8894 264° West 355 409 38,000  Level Albuquerque Center
Thu 01:49:09 AM 35.0756 -106.0242 264° West 360 414 38,000  Level Albuquerque Center
Thu 01:50:10 AM 35.0667 -106.1439 265° West 357 411 38,000  Level Albuquerque Center
Thu 01:51:10 AM 35.0564 -106.2656 264° West 359 413 38,000  Level Albuquerque Center
Thu 01:52:11 AM 35.0456 -106.3883 264° West 363 418 38,000  Level Albuquerque Center
Thu 01:53:12 AM 35.0353 -106.5122 264° West 365 420 38,000  Level Albuquerque Center
Thu 01:54:12 AM 35.0242 -106.6333 264° West 374 430 38,000  Level Albuquerque Center
Thu 01:55:13 AM 35.0128 -106.7711 264° West 368 423 38,000  Level Albuquerque Center
Thu 01:56:14 AM 35.0039 -106.8825 264° West 352 405 38,000  Level Albuquerque Center
Thu 01:57:14 AM 34.9950 -106.9958 265° West 351 404 38,000  Level Albuquerque Center
Thu 01:58:15 AM 34.9856 -107.1078 264° West 346 398 38,000  Level Albuquerque Center
Thu 01:59:16 AM 34.9714 -107.2450 263° West 364 419 38,000  Level Albuquerque Center
Thu 02:00:16 AM 34.9603 -107.3647 264° West 359 413 38,000  Level Albuquerque Center
Thu 02:01:17 AM 34.9494 -107.4844 264° West 357 411 38,000  Level Albuquerque Center
Thu 02:02:18 AM 34.9389 -107.6042 264° West 355 409 38,000  Level Albuquerque Center
Thu 02:03:18 AM 34.9278 -107.7244 264° West 356 410 38,000  Level Albuquerque Center
Thu 02:04:19 AM 34.9175 -107.8386 264° West 360 414 38,000  Level Albuquerque Center
Thu 02:05:20 AM 34.9039 -107.9758 263° West 364 419 38,000  Level Albuquerque Center
Thu 02:06:20 AM 34.8936 -108.0942 264° West 365 420 38,000  Level Albuquerque Center
Thu 02:07:21 AM 34.8814 -108.2111 263° West 364 419 38,000  Level Albuquerque Center
Thu 02:08:22 AM 34.8675 -108.3483 263° West 364 419 38,000  Level Albuquerque Center
Thu 02:09:22 AM 34.8567 -108.4644 264° West 362 417 38,000  Level Albuquerque Center
Thu 02:10:23 AM 34.8450 -108.5800 263° West 360 414 38,000  Level Albuquerque Center
Thu 02:11:24 AM 34.8308 -108.7158 263° West 361 415 38,000 -149 Level Albuquerque Center
Thu 02:12:24 AM 34.8200 -108.8297 263° West 357 411 37,700 -595 Descending Albuquerque Center
Thu 02:13:25 AM 34.8078 -108.9456 263° West 358 412 36,800 -843 Descending Albuquerque Center
Thu 02:14:25 AM 34.7961 -109.0578 263° West 353 406 36,000 -397 Descending Albuquerque Center
Thu 02:15:26 AM 34.7819 -109.1875 262° West 347 399 36,000  Level Albuquerque Center
Thu 02:16:27 AM 34.7708 -109.3006 263° West 349 402 36,000  Level Albuquerque Center
Thu 02:17:27 AM 34.7586 -109.4139 263° West 351 404 36,000  Level Albuquerque Center
Thu 02:18:28 AM 34.7433 -109.5431 262° West 348 400 36,000  Level Albuquerque Center
Thu 02:19:28 AM 34.7308 -109.6581 262° West 352 405 36,000  Level Albuquerque Center
Thu 02:20:29 AM 34.7183 -109.7728 262° West 356 410 36,000  Level Albuquerque Center
Thu 02:21:30 AM 34.6894 -109.9031 255° West 361 415 36,000  Level Albuquerque Center
Thu 02:22:30 AM 34.6367 -109.9992 236° Southwest 363 418 36,000  Level Albuquerque Center
Thu 02:23:31 AM 34.5856 -110.0978 238° Southwest 360 414 36,000  Level Albuquerque Center
Thu 02:24:31 AM 34.5250 -110.2089 237° Southwest 354 407 36,000  Level Albuquerque Center
Thu 02:25:32 AM 34.4744 -110.3044 237° Southwest 351 404 36,000 -893 Level Albuquerque Center
Thu 02:26:32 AM 34.4244 -110.4014 238° Southwest 352 405 34,200 -2,182 Descending Albuquerque Center
Thu 02:27:33 AM 34.3772 -110.4992 240° Southwest 364 419 31,600 -2,410 Descending Albuquerque Center
Thu 02:28:34 AM 34.3236 -110.5997 237° Southwest 360 414 29,300 -2,331 Descending Albuquerque Center
Thu 02:29:34 AM 34.2625 -110.7031 234° Southwest 352 405 26,900 -2,231 Descending Albuquerque Center
Thu 02:30:35 AM 34.2108 -110.7956 236° Southwest 357 411 24,800 -2,380 Descending Albuquerque Center
Thu 02:31:35 AM 34.1469 -110.9153 237° Southwest 356 410 22,100 -2,380 Descending Albuquerque Center
Thu 02:32:36 AM 34.0958 -111.0092 237° Southwest 341 392 20,000 -2,083 Descending Albuquerque Center
Thu 02:33:36 AM 34.0467 -111.1025 238° Southwest 335 386 17,900 -2,033 Descending Albuquerque Center
Thu 02:34:37 AM 33.9967 -111.1950 237° Southwest 331 381 15,900 -1,934 Descending Albuquerque Center
Thu 02:35:37 AM 33.9464 -111.2847 236° Southwest 325 374 14,000 -1,686 Descending Albuquerque Center
Thu 02:36:38 AM 33.8992 -111.3717 237° Southwest 312 359 12,500 -1,289 Descending Albuquerque Center
Thu 02:37:38 AM 33.8456 -111.4358 225° Southwest 278 320 11,400 -893 Descending Albuquerque Center
Thu 02:38:39 AM 33.7817 -111.4908 216° Southwest 280 322 10,700 -1,041 Descending Albuquerque Center
Thu 02:39:39 AM 33.7194 -111.5453 216° Southwest 275 316 9,300 -1,041 Descending Albuquerque Center
Thu 02:40:40 AM 33.6583 -111.5978 216° Southwest 269 310 8,600 -787 Descending Albuquerque Center
Thu 02:41:41 AM 33.6028 -111.6436 214° Southwest 244 281 7,700 -1,041 Descending Albuquerque Center
Thu 02:42:41 AM 33.5511 -111.6864 215° Southwest 227 261 6,500 -1,200 Descending Albuquerque Center
Thu 02:43:41 AM 33.4992 -111.7308 216° Southwest 229 264 5,300 -793 Descending Albuquerque Center
Thu 02:44:42 AM 33.4564 -111.7756 221° Southwest 206 237 4,900 -694 Descending Albuquerque Center
Thu 02:45:42 AM 33.4306 -111.8281 239° Southwest 189 217 3,900 -942 Descending Albuquerque Center
Thu 02:46:43 AM 33.4308 -111.8811 270° West 163 188 3,000 -843 Descending Albuquerque Center
Thu 02:47:43 AM 33.4311 -111.9294 270° West 147 169 2,200 -744 Descending Albuquerque Center
Thu 02:48:44 AM 33.4314 -111.9753 270° West 139 160 1,500 -545 Descending Albuquerque Center
Thu 02:49:44 AM 33.4294 -112.0233 267° West 141 162 1,100 -400 Descending Albuquerque Center
Thu 02:51:00 AM 33.4343 -112.0116 90° East  Level Estimated

Login

Don't have an account? Register now (free) for customized features, flight alerts, and more!